Delta Virtual Airport Information Service

Apia Faleolo International Airport

ICAO: NSFA Country: Samoa
Latitude: -13.8296 Longitude: -171.997
Latest Arrival : DAC804 (NSTU-NSFA) Latest Departure : DAC804 (NSFA-NFFN)


WX CaptureLIVE
Data provided by noaa.gov | Fetched at 12:51:06

METAR : NSFA 301700Z 09004KT 9999 FEW020 BKN045 25/24 Q1011

TAF : NSFA 301210Z 3012/0112 07006KT 9999 SCT018 BKN036 PROB40 TEMPO 3012/0112 07015G25KT 1500 TSRA BKN015 FEW018CB


Runway Data for NSFA
Data provided by openaviationdata.com

Runway ID Mag Var Hdg Length Elevation Surface ILS Freq ILS Id ILS Slope
8 12 77° 9840 ft 58 ft Asphalt 109.9 IAP 3
26 12 257° 9840 ft 58 ft Asphalt -- -- --

Apia Faleolo International Airport, Samoa
Use only for reference purposes



Not for navigational purposes.